PT-0072 weather

CLOSED Pista do Cabo Sardão
Odemira, Beja District, Portugal

Public forecast

Using degrees Celsius for public forecast. Weather courtesy of forecast.io.

Closest aviation weather report (METAR) to Pista do Cabo Sardão

Closest report is Beja Airport / Airbase, 47.7 nm (88.3 km) NE. Retrieved 2020/07/12 09:00 UTC (43 minutes ago):

LPBJ 120900Z 29006KT 250V320 9999 VCFG NSC 24/17 Q1016

Closest aviation forecast (TAF) to Pista do Cabo Sardão

Closest forecast is Beja Airport / Airbase, 47.7 nm (88.3 km) NE. Retrieved 2020/07/12 06:18 UTC (3 hours ago):

TAF LPBJ 120506Z 1206/1306 27005KT CAVOK BECMG 1214/1216 31015KT BECMG 1218/1220 33007KT